createdAt,value
2023-05-14T00:00:43.011Z,59.62
2023-05-14T00:03:45.624Z,59.92
2023-05-14T00:06:48.102Z,59.68
2023-05-14T00:09:50.490Z,59.93
2023-05-14T00:12:52.953Z,59.60
2023-05-14T00:15:55.628Z,59.68
2023-05-14T00:18:58.119Z,59.81
2023-05-14T00:22:00.674Z,59.88
2023-05-14T00:25:03.288Z,59.57
2023-05-14T00:28:05.925Z,59.88
2023-05-14T00:31:08.522Z,59.90
2023-05-14T00:34:11.060Z,59.70
2023-05-14T00:37:13.504Z,59.52
2023-05-14T00:40:16.024Z,59.59
2023-05-14T00:43:20.175Z,59.79
2023-05-14T00:46:22.818Z,59.58
2023-05-14T00:49:26.900Z,59.69
2023-05-14T00:52:29.712Z,59.85
2023-05-14T00:55:32.328Z,59.94
2023-05-14T00:58:34.739Z,59.74
2023-05-14T01:01:37.671Z,59.85
2023-05-14T01:04:40.373Z,59.66
2023-05-14T01:08:00.964Z,59.74
2023-05-14T01:11:03.624Z,59.47
2023-05-14T01:14:27.277Z,59.64
2023-05-14T01:17:33.055Z,60.01
2023-05-14T01:20:36.071Z,59.90
2023-05-14T01:23:38.484Z,59.64
2023-05-14T01:26:41.035Z,59.91
2023-05-14T01:29:55.593Z,59.70
2023-05-14T01:33:00.580Z,59.59
2023-05-14T01:36:04.046Z,59.48
2023-05-14T01:39:09.687Z,59.69
2023-05-14T01:42:12.288Z,59.51
2023-05-14T01:45:14.823Z,59.52
2023-05-14T01:48:17.325Z,59.67
2023-05-14T01:51:19.798Z,59.74
2023-05-14T01:54:22.562Z,59.54
2023-05-14T01:57:26.095Z,59.44
2023-05-14T02:00:28.576Z,59.81
2023-05-14T02:03:31.259Z,59.94
2023-05-14T02:06:34.001Z,59.46
2023-05-14T02:09:36.453Z,59.60
2023-05-14T02:12:38.870Z,59.69
2023-05-14T02:15:41.457Z,59.51
2023-05-14T02:18:43.915Z,59.58
2023-05-14T02:21:47.248Z,59.59
2023-05-14T02:24:51.465Z,59.61
2023-05-14T02:27:53.998Z,59.60
2023-05-14T02:31:01.290Z,59.73
2023-05-14T02:34:04.986Z,59.47
2023-05-14T02:37:07.453Z,59.43
2023-05-14T02:40:11.345Z,59.34
2023-05-14T02:43:13.920Z,59.47
2023-05-14T02:46:16.359Z,59.60
2023-05-14T02:49:18.776Z,59.71
2023-05-14T02:52:21.207Z,59.66
2023-05-14T02:55:26.484Z,59.84
2023-05-14T02:58:28.935Z,59.75
2023-05-14T03:01:31.613Z,59.89
2023-05-14T03:04:34.393Z,59.28
2023-05-14T03:07:36.886Z,59.85
2023-05-14T03:10:39.254Z,59.74
2023-05-14T03:13:41.670Z,59.45
2023-05-14T03:16:44.099Z,59.70
2023-05-14T03:19:47.612Z,59.58
2023-05-14T03:22:50.069Z,59.56
2023-05-14T03:25:52.714Z,59.61
2023-05-14T03:28:55.120Z,59.40
2023-05-14T03:31:57.592Z,59.47
2023-05-14T03:35:00.060Z,59.38
2023-05-14T03:38:02.512Z,59.52
2023-05-14T03:41:05.255Z,59.56
2023-05-14T03:44:07.673Z,59.49
2023-05-14T03:47:10.444Z,59.63
2023-05-14T03:50:12.917Z,59.23
2023-05-14T03:53:15.379Z,59.37
2023-05-14T03:56:17.864Z,59.38
2023-05-14T03:59:20.320Z,59.12
2023-05-14T04:02:22.732Z,59.16
2023-05-14T04:05:25.434Z,59.33
2023-05-14T04:08:27.937Z,59.37
2023-05-14T04:11:32.112Z,59.23
2023-05-14T04:14:35.484Z,59.26
2023-05-14T04:17:38.920Z,59.09
2023-05-14T04:20:41.346Z,59.05
2023-05-14T04:23:43.757Z,59.28
2023-05-14T04:26:46.175Z,58.81
2023-05-14T04:29:49.715Z,58.95
2023-05-14T04:32:52.283Z,59.32
2023-05-14T04:35:54.705Z,59.12
2023-05-14T04:38:57.199Z,59.18
2023-05-14T04:41:59.588Z,59.05
2023-05-14T04:45:02.097Z,58.90
2023-05-14T04:48:05.048Z,59.04
2023-05-14T04:51:07.671Z,59.02
2023-05-14T04:54:10.145Z,59.16
2023-05-14T04:57:12.531Z,58.79
2023-05-14T05:00:15.877Z,58.83
2023-05-14T05:03:18.476Z,58.87
2023-05-14T05:06:21.207Z,59.13
2023-05-14T05:09:23.693Z,58.84
2023-05-14T05:12:26.204Z,58.83
2023-05-14T05:15:28.620Z,59.01
2023-05-14T05:18:31.057Z,58.90
2023-05-14T05:21:33.602Z,58.73
2023-05-14T05:24:36.047Z,58.74
2023-05-14T05:27:38.906Z,58.54
2023-05-14T05:30:41.316Z,58.64
2023-05-14T05:33:44.025Z,58.63
2023-05-14T05:36:46.488Z,58.65
2023-05-14T05:39:49.535Z,58.75
2023-05-14T05:42:51.925Z,58.58
2023-05-14T05:45:54.660Z,58.48
2023-05-14T05:48:57.072Z,58.46
2023-05-14T05:51:59.505Z,58.64
2023-05-14T05:55:02.016Z,58.39
2023-05-14T05:58:04.697Z,58.67
2023-05-14T06:01:07.076Z,58.50
2023-05-14T06:04:10.181Z,58.24
2023-05-14T06:07:13.079Z,58.51
2023-05-14T06:10:15.638Z,58.50
2023-05-14T06:13:18.159Z,58.68
2023-05-14T06:16:21.085Z,58.49
2023-05-14T06:19:23.539Z,58.34
2023-05-14T06:22:25.920Z,58.18
2023-05-14T06:25:28.522Z,58.26
2023-05-14T06:28:30.915Z,58.45
2023-05-14T06:31:33.298Z,58.24
2023-05-14T06:34:35.842Z,58.39
2023-05-14T06:37:38.403Z,58.43
2023-05-14T06:40:40.985Z,58.21
2023-05-14T06:43:43.451Z,58.18
2023-05-14T06:46:45.887Z,57.98
2023-05-14T06:49:48.369Z,58.22
2023-05-14T06:52:50.784Z,58.28
2023-05-14T06:55:53.257Z,58.15
2023-05-14T06:58:55.690Z,57.97
2023-05-14T07:01:58.170Z,58.00
2023-05-14T07:05:00.911Z,57.75
2023-05-14T07:08:03.423Z,57.95
2023-05-14T07:11:05.853Z,57.94
2023-05-14T07:14:08.295Z,57.74
2023-05-14T07:17:11.298Z,57.66
2023-05-14T07:20:13.778Z,57.65
2023-05-14T07:23:18.501Z,57.76
2023-05-14T07:26:24.588Z,57.56
2023-05-14T07:29:27.055Z,57.41
2023-05-14T07:32:29.485Z,57.43
2023-05-14T07:35:31.980Z,57.29
2023-05-14T07:38:34.448Z,57.49
2023-05-14T07:41:36.888Z,57.12
2023-05-14T07:44:39.462Z,56.84
2023-05-14T07:47:42.140Z,56.99
2023-05-14T07:50:45.454Z,56.98
2023-05-14T07:53:47.879Z,56.65
2023-05-14T07:56:50.360Z,56.55
2023-05-14T07:59:52.908Z,56.81
2023-05-14T08:02:56.115Z,56.69
2023-05-14T08:05:58.680Z,56.50
2023-05-14T08:09:01.074Z,56.75
2023-05-14T08:12:03.830Z,56.65
2023-05-14T08:15:07.900Z,56.44
2023-05-14T08:18:10.351Z,56.43
2023-05-14T08:21:12.792Z,56.18
2023-05-14T08:24:15.169Z,56.17
2023-05-14T08:27:17.565Z,56.28
2023-05-14T08:30:20.858Z,56.10
2023-05-14T08:33:23.470Z,55.92
2023-05-14T08:36:25.884Z,55.91
2023-05-14T08:39:28.388Z,56.10
2023-05-14T08:42:31.419Z,56.12
2023-05-14T08:45:35.174Z,55.79
2023-05-14T08:48:40.927Z,55.93
2023-05-14T08:51:47.117Z,56.08
2023-05-14T08:54:51.297Z,55.64
2023-05-14T08:57:53.836Z,55.93
2023-05-14T09:00:56.328Z,55.81
2023-05-14T09:03:58.831Z,55.53
2023-05-14T09:07:02.843Z,55.74
2023-05-14T09:10:05.891Z,55.53
2023-05-14T09:13:10.270Z,55.90
2023-05-14T09:16:12.795Z,55.69
2023-05-14T09:19:16.004Z,55.63
2023-05-14T09:22:19.167Z,55.83
2023-05-14T09:25:27.059Z,55.63
2023-05-14T09:28:30.730Z,55.65
2023-05-14T09:31:33.911Z,55.89
2023-05-14T09:34:38.103Z,55.70
2023-05-14T09:37:48.805Z,55.93
2023-05-14T09:40:51.224Z,56.13
2023-05-14T09:43:53.956Z,55.96
2023-05-14T09:46:56.851Z,55.93
2023-05-14T09:49:59.353Z,56.13
2023-05-14T09:53:01.975Z,55.89
2023-05-14T09:56:04.656Z,55.83
2023-05-14T09:59:07.045Z,55.94
2023-05-14T10:02:23.233Z,55.95
2023-05-14T10:05:26.927Z,55.97
2023-05-14T10:08:34.264Z,55.83
2023-05-14T10:11:38.246Z,56.10
2023-05-14T10:14:41.609Z,56.10
2023-05-14T10:17:49.413Z,55.58
2023-05-14T10:21:04.501Z,55.75
2023-05-14T10:24:08.519Z,55.84
2023-05-14T10:27:10.932Z,56.05
2023-05-14T10:30:13.717Z,56.02
2023-05-14T10:33:18.465Z,55.81
2023-05-14T10:36:20.937Z,55.88
2023-05-14T10:39:24.196Z,55.88
2023-05-14T10:42:33.460Z,55.68
2023-05-14T10:45:36.405Z,55.93
2023-05-14T10:48:43.725Z,55.64
2023-05-14T10:51:49.562Z,55.64
2023-05-14T10:54:57.017Z,55.91
2023-05-14T10:58:01.418Z,55.47
2023-05-14T11:01:06.145Z,55.64
2023-05-14T11:04:09.336Z,55.67
2023-05-14T11:07:12.500Z,55.75
2023-05-14T11:10:19.957Z,56.04
2023-05-14T11:13:22.450Z,55.87
2023-05-14T11:16:29.295Z,55.85
2023-05-14T11:19:31.708Z,55.45
2023-05-14T11:22:35.130Z,56.15
2023-05-14T11:25:37.839Z,55.88
2023-05-14T11:28:40.537Z,55.90
2023-05-14T11:31:43.119Z,55.97
2023-05-14T11:34:46.238Z,56.05
2023-05-14T11:37:52.671Z,56.02
2023-05-14T11:40:59.514Z,55.95
2023-05-14T11:44:02.009Z,56.06
2023-05-14T11:47:05.245Z,56.10
2023-05-14T11:50:09.404Z,56.00
2023-05-14T11:53:12.280Z,55.95
2023-05-14T11:56:14.766Z,56.09
2023-05-14T11:59:18.554Z,56.11
2023-05-14T12:02:21.202Z,56.14
2023-05-14T12:05:23.767Z,55.95
2023-05-14T12:08:30.427Z,56.24
2023-05-14T12:11:33.045Z,56.30
2023-05-14T12:14:38.400Z,56.21
2023-05-14T12:17:41.466Z,55.94
2023-05-14T12:20:52.178Z,56.34
2023-05-14T12:24:01.089Z,56.35
2023-05-14T12:27:03.766Z,56.31
2023-05-14T12:30:20.558Z,56.55
2023-05-14T12:33:24.087Z,56.33
2023-05-14T12:36:26.540Z,56.26
2023-05-14T12:39:30.372Z,56.40
2023-05-14T12:42:33.180Z,56.40
2023-05-14T12:45:35.691Z,56.47
2023-05-14T12:48:38.131Z,56.57
2023-05-14T12:51:41.105Z,56.57
2023-05-14T12:54:43.799Z,56.78
2023-05-14T12:57:46.218Z,56.63
2023-05-14T13:00:48.779Z,56.46
2023-05-14T13:03:51.277Z,56.85
2023-05-14T13:06:53.722Z,56.50
2023-05-14T13:09:56.553Z,56.76
2023-05-14T13:12:59.267Z,56.71
2023-05-14T13:16:01.693Z,56.71
2023-05-14T13:19:04.133Z,56.62
2023-05-14T13:22:06.588Z,56.77
2023-05-14T13:25:09.483Z,56.76
2023-05-14T13:28:11.955Z,56.65
2023-05-14T13:31:14.991Z,56.65
2023-05-14T13:34:17.499Z,56.90
2023-05-14T13:37:20.416Z,56.58
2023-05-14T13:40:22.913Z,56.78
2023-05-14T13:43:25.328Z,56.83
2023-05-14T13:46:27.839Z,57.02
2023-05-14T13:49:30.375Z,56.86
2023-05-14T13:52:32.865Z,56.97
2023-05-14T13:55:35.416Z,56.75
2023-05-14T13:58:37.816Z,56.98
2023-05-14T14:01:40.517Z,56.75
2023-05-14T14:04:43.044Z,57.23
2023-05-14T14:07:46.990Z,57.09
2023-05-14T14:10:50.094Z,57.07
2023-05-14T14:13:53.095Z,57.08
2023-05-14T14:16:55.612Z,57.17
2023-05-14T14:19:57.998Z,57.08
2023-05-14T14:23:00.512Z,56.98
2023-05-14T14:26:02.972Z,56.96
2023-05-14T14:29:05.443Z,57.01
2023-05-14T14:32:08.008Z,57.28
2023-05-14T14:35:11.947Z,57.04
2023-05-14T14:38:14.660Z,57.38
2023-05-14T14:41:17.161Z,57.35
2023-05-14T14:44:19.686Z,57.43
2023-05-14T14:47:22.211Z,57.45
2023-05-14T14:50:24.580Z,57.13
2023-05-14T14:53:27.161Z,57.36
2023-05-14T14:56:29.586Z,57.01
2023-05-14T14:59:32.026Z,57.23
2023-05-14T15:02:34.871Z,57.25
2023-05-14T15:05:37.703Z,57.37
2023-05-14T15:08:40.419Z,57.32
2023-05-14T15:11:42.862Z,57.57
2023-05-14T15:14:45.292Z,57.46
2023-05-14T15:17:47.909Z,57.16
2023-05-14T15:20:50.787Z,57.37
2023-05-14T15:23:53.219Z,57.30
2023-05-14T15:26:55.697Z,57.20
2023-05-14T15:29:58.112Z,57.74
2023-05-14T15:33:00.718Z,57.58
2023-05-14T15:36:03.296Z,57.49
2023-05-14T15:39:05.957Z,57.60
2023-05-14T15:42:08.438Z,57.60
2023-05-14T15:45:12.543Z,57.53
2023-05-14T15:48:15.092Z,57.47
2023-05-14T15:51:17.555Z,57.50
2023-05-14T15:54:20.072Z,57.71
2023-05-14T15:57:22.597Z,57.74
2023-05-14T16:00:25.382Z,57.84
2023-05-14T16:03:28.138Z,57.40
2023-05-14T16:06:31.144Z,57.89
2023-05-14T16:09:33.660Z,57.74
2023-05-14T16:12:36.212Z,57.65
2023-05-14T16:15:39.956Z,57.54
2023-05-14T16:18:43.310Z,57.66
2023-05-14T16:21:45.768Z,57.68
2023-05-14T16:24:48.241Z,57.85
2023-05-14T16:27:50.791Z,57.68
2023-05-14T16:30:53.307Z,57.87
2023-05-14T16:33:55.926Z,57.95
2023-05-14T16:36:59.656Z,57.77
2023-05-14T16:40:02.227Z,58.14
2023-05-14T16:43:04.752Z,58.04
2023-05-14T16:46:07.218Z,57.87
2023-05-14T16:49:09.832Z,57.93
2023-05-14T16:52:12.302Z,58.12
2023-05-14T16:55:14.885Z,57.84
2023-05-14T16:58:17.359Z,58.13
2023-05-14T17:01:19.992Z,57.91
2023-05-14T17:04:24.978Z,57.98
2023-05-14T17:07:27.579Z,58.11
2023-05-14T17:10:30.991Z,57.93
2023-05-14T17:13:34.086Z,57.87
2023-05-14T17:16:38.792Z,57.87
2023-05-14T17:19:41.462Z,57.74
2023-05-14T17:22:44.047Z,58.00
2023-05-14T17:25:46.409Z,58.16
2023-05-14T17:28:48.879Z,57.91
2023-05-14T17:31:51.346Z,57.84
2023-05-14T17:34:53.872Z,58.19
2023-05-14T17:37:57.576Z,57.78
2023-05-14T17:41:02.083Z,58.29
2023-05-14T17:44:04.761Z,58.34
2023-05-14T17:47:08.409Z,58.31
2023-05-14T17:50:12.214Z,57.95
2023-05-14T17:53:14.852Z,58.03
2023-05-14T17:56:18.586Z,58.23
2023-05-14T17:59:22.942Z,57.89
2023-05-14T18:02:26.610Z,58.04
2023-05-14T18:05:31.645Z,58.23
2023-05-14T18:08:34.122Z,58.11
2023-05-14T18:11:36.848Z,58.07
2023-05-14T18:14:39.322Z,58.28
2023-05-14T18:17:43.722Z,58.12
2023-05-14T18:20:46.151Z,58.10
2023-05-14T18:23:49.243Z,58.11
2023-05-14T18:26:51.780Z,58.09
2023-05-14T18:29:54.489Z,58.09
2023-05-14T18:32:57.135Z,58.11
2023-05-14T18:35:59.759Z,58.12
2023-05-14T18:39:02.294Z,58.29
2023-05-14T18:42:06.209Z,58.21
2023-05-14T18:45:09.070Z,58.33
2023-05-14T18:48:11.533Z,58.19
2023-05-14T18:51:14.020Z,58.36
2023-05-14T18:54:16.603Z,58.10
2023-05-14T18:57:19.057Z,58.23
2023-05-14T19:00:21.536Z,58.34
2023-05-14T19:03:24.151Z,57.96
2023-05-14T19:06:26.765Z,58.03
2023-05-14T19:09:29.324Z,58.44
2023-05-14T19:12:31.963Z,57.93
2023-05-14T19:15:34.472Z,58.07
2023-05-14T19:18:37.001Z,58.15
2023-05-14T19:21:39.494Z,58.22
2023-05-14T19:24:42.137Z,58.35
2023-05-14T19:27:45.584Z,58.26
2023-05-14T19:30:48.145Z,58.35
2023-05-14T19:33:51.133Z,58.40
2023-05-14T19:36:53.782Z,58.37
2023-05-14T19:39:56.197Z,58.30
2023-05-14T19:42:58.664Z,58.23
2023-05-14T19:46:01.658Z,58.29
2023-05-14T19:49:04.298Z,58.29
2023-05-14T19:52:06.818Z,58.22
2023-05-14T19:55:09.457Z,58.25
2023-05-14T19:58:12.182Z,58.11
2023-05-14T20:01:15.216Z,58.00
2023-05-14T20:04:17.954Z,58.24
2023-05-14T20:07:20.548Z,58.05
2023-05-14T20:10:23.708Z,58.39
2023-05-14T20:13:26.571Z,58.29
2023-05-14T20:16:29.094Z,58.17
2023-05-14T20:19:31.749Z,58.07
2023-05-14T20:22:34.224Z,58.09
2023-05-14T20:25:36.707Z,58.39
2023-05-14T20:28:39.316Z,58.17
2023-05-14T20:31:41.860Z,58.38
2023-05-14T20:34:44.311Z,58.40
2023-05-14T20:37:47.334Z,58.35
2023-05-14T20:40:49.852Z,58.23
2023-05-14T20:43:52.321Z,58.06
2023-05-14T20:46:54.809Z,58.21
2023-05-14T20:49:57.278Z,58.39
2023-05-14T20:52:59.729Z,58.22
2023-05-14T20:56:02.234Z,58.45
2023-05-14T20:59:04.625Z,58.14
2023-05-14T21:02:07.219Z,58.22
2023-05-14T21:05:09.739Z,58.40
2023-05-14T21:08:12.173Z,58.31
2023-05-14T21:11:14.600Z,58.25
2023-05-14T21:14:17.035Z,58.00
2023-05-14T21:17:19.555Z,58.07
2023-05-14T21:20:22.049Z,58.16
2023-05-14T21:23:24.708Z,58.35
2023-05-14T21:26:30.728Z,58.33
2023-05-14T21:29:33.137Z,58.37
2023-05-14T21:32:35.598Z,58.13
2023-05-14T21:35:38.088Z,58.17
2023-05-14T21:38:40.845Z,58.29
2023-05-14T21:41:43.291Z,58.36
2023-05-14T21:44:45.684Z,58.24
2023-05-14T21:47:48.151Z,58.03
2023-05-14T21:50:50.700Z,58.39
2023-05-14T21:53:53.200Z,57.96
2023-05-14T21:56:55.671Z,58.11
2023-05-14T21:59:58.333Z,58.07
2023-05-14T22:03:00.847Z,58.25
2023-05-14T22:06:03.529Z,58.27
2023-05-14T22:09:05.995Z,58.33
2023-05-14T22:12:08.620Z,58.11
2023-05-14T22:15:11.891Z,58.22
2023-05-14T22:18:15.637Z,58.01
2023-05-14T22:21:18.077Z,58.45
2023-05-14T22:24:20.983Z,58.43
2023-05-14T22:27:23.376Z,58.44
2023-05-14T22:30:25.793Z,58.09
2023-05-14T22:33:28.254Z,58.22
2023-05-14T22:36:30.687Z,58.14
2023-05-14T22:39:33.069Z,58.21
2023-05-14T22:42:35.490Z,58.34
2023-05-14T22:45:37.983Z,58.08
2023-05-14T22:48:40.391Z,58.37
2023-05-14T22:51:42.799Z,58.25
2023-05-14T22:54:46.674Z,58.03
2023-05-14T22:57:49.101Z,58.02
2023-05-14T23:00:51.488Z,58.03
2023-05-14T23:03:53.859Z,58.28
2023-05-14T23:06:56.291Z,58.22
2023-05-14T23:09:58.679Z,58.17
2023-05-14T23:13:01.311Z,58.27
2023-05-14T23:16:04.131Z,58.23
2023-05-14T23:19:06.843Z,58.26
2023-05-14T23:22:09.457Z,58.31
2023-05-14T23:25:11.936Z,58.48
2023-05-14T23:28:14.368Z,58.10
2023-05-14T23:31:16.763Z,58.04
2023-05-14T23:34:19.197Z,58.15
2023-05-14T23:37:21.716Z,58.20
2023-05-14T23:40:24.111Z,58.01
2023-05-14T23:43:26.545Z,58.16
2023-05-14T23:46:29.214Z,58.29
2023-05-14T23:49:31.795Z,58.09
2023-05-14T23:52:34.292Z,58.17
2023-05-14T23:55:36.777Z,58.01
2023-05-14T23:58:39.259Z,57.94
